createdAt,value
2019-04-04T00:00:58.955Z,1.76
2019-04-04T00:03:30.405Z,1.82
2019-04-04T00:06:01.985Z,1.86
2019-04-04T00:08:33.733Z,1.88
2019-04-04T00:11:06.080Z,1.74
2019-04-04T00:13:38.228Z,1.76
2019-04-04T00:16:09.509Z,1.72
2019-04-04T00:18:41.226Z,1.72
2019-04-04T00:21:12.776Z,1.71
2019-04-04T00:23:44.483Z,1.63
2019-04-04T00:26:15.882Z,1.55
2019-04-04T00:28:47.584Z,1.48
2019-04-04T00:31:19.768Z,1.43
2019-04-04T00:33:51.440Z,1.45
2019-04-04T00:36:22.845Z,1.44
2019-04-04T00:38:54.864Z,1.60
2019-04-04T00:41:26.537Z,1.61
2019-04-04T00:43:58.246Z,1.57
2019-04-04T00:46:30.884Z,1.55
2019-04-04T00:49:04.922Z,1.57
2019-04-04T00:51:38.699Z,1.64
2019-04-04T00:54:09.752Z,1.66
2019-04-04T00:56:41.133Z,1.55
2019-04-04T00:59:12.840Z,1.41
2019-04-04T01:01:44.597Z,1.36
2019-04-04T01:04:16.338Z,1.26
2019-04-04T01:06:47.909Z,1.28
2019-04-04T01:09:19.763Z,1.29
2019-04-04T01:11:51.867Z,1.37
2019-04-04T01:14:23.490Z,1.35
2019-04-04T01:16:54.949Z,1.53
2019-04-04T01:19:26.521Z,1.48
2019-04-04T01:21:58.200Z,1.61
2019-04-04T01:24:29.949Z,1.59
2019-04-04T01:27:01.396Z,1.59
2019-04-04T01:29:33.247Z,1.55
2019-04-04T01:32:05.138Z,1.43
2019-04-04T01:34:36.920Z,1.39
2019-04-04T01:37:08.595Z,1.28
2019-04-04T01:39:40.036Z,1.22
2019-04-04T01:42:11.893Z,1.16
2019-04-04T01:44:44.381Z,1.07
2019-04-04T01:47:17.057Z,1.01
2019-04-04T01:49:49.972Z,1.07
2019-04-04T01:52:22.934Z,1.09
2019-04-04T01:54:54.883Z,1.12
2019-04-04T01:57:26.778Z,1.12
2019-04-04T01:59:58.132Z,1.13
2019-04-04T02:02:30.522Z,1.18
2019-04-04T02:05:02.414Z,1.19
2019-04-04T02:07:34.072Z,1.13
2019-04-04T02:10:06.568Z,1.09
2019-04-04T02:12:39.260Z,1.05
2019-04-04T02:15:13.777Z,1.03
2019-04-04T02:17:44.336Z,0.95
2019-04-04T02:20:16.779Z,1.00
2019-04-04T02:22:48.466Z,0.96
2019-04-04T02:25:19.865Z,0.95
2019-04-04T02:27:51.392Z,0.99
2019-04-04T02:30:22.879Z,0.98
2019-04-04T02:32:59.428Z,0.82
2019-04-04T02:35:28.681Z,0.84
2019-04-04T02:38:02.863Z,0.79
2019-04-04T02:40:34.728Z,0.84
2019-04-04T02:43:06.436Z,0.78
2019-04-04T02:45:39.107Z,0.79
2019-04-04T02:48:10.803Z,0.85
2019-04-04T02:50:42.392Z,0.83
2019-04-04T02:53:19.359Z,0.90
2019-04-04T02:55:47.117Z,0.89
2019-04-04T02:58:18.679Z,0.83
2019-04-04T03:00:50.231Z,0.80
2019-04-04T03:03:21.894Z,0.80
2019-04-04T03:05:53.514Z,0.94
2019-04-04T03:08:25.184Z,1.00
2019-04-04T03:10:56.774Z,1.05
2019-04-04T03:13:31.168Z,1.05
2019-04-04T03:16:01.571Z,1.03
2019-04-04T03:18:34.829Z,1.03
2019-04-04T03:21:06.454Z,1.03
2019-04-04T03:23:37.969Z,1.13
2019-04-04T03:26:09.834Z,1.18
2019-04-04T03:28:41.591Z,1.24
2019-04-04T03:31:13.246Z,1.32
2019-04-04T03:33:44.622Z,1.53
2019-04-04T03:36:16.217Z,1.53
2019-04-04T03:38:48.884Z,1.77
2019-04-04T03:41:20.739Z,2.42
2019-04-04T03:43:52.251Z,3.54
2019-04-04T03:46:24.197Z,4.69
2019-04-04T03:48:55.552Z,5.94
2019-04-04T03:51:27.301Z,7.13
2019-04-04T03:54:00.219Z,8.37
2019-04-04T03:56:38.781Z,9.18
2019-04-04T03:59:05.249Z,9.70
2019-04-04T04:01:36.969Z,10.10
2019-04-04T04:04:08.450Z,10.62
2019-04-04T04:06:41.932Z,10.62
2019-04-04T04:09:14.522Z,9.77
2019-04-04T04:11:46.486Z,8.83
2019-04-04T04:14:21.648Z,7.82
2019-04-04T04:16:51.236Z,7.72
2019-04-04T04:19:24.525Z,7.54
2019-04-04T04:21:55.970Z,8.04
2019-04-04T04:24:29.816Z,9.38
2019-04-04T04:27:01.100Z,10.78
2019-04-04T04:29:34.015Z,12.04
2019-04-04T04:32:05.469Z,12.96
2019-04-04T04:34:37.148Z,15.27
2019-04-04T04:37:08.468Z,16.42
2019-04-04T04:39:41.440Z,15.94
2019-04-04T04:42:12.383Z,15.94
2019-04-04T04:44:43.842Z,17.31
2019-04-04T04:47:15.367Z,17.72
2019-04-04T04:49:47.146Z,16.62
2019-04-04T04:52:18.528Z,16.62
2019-04-04T04:54:50.086Z,17.75
2019-04-04T04:57:29.503Z,17.87
2019-04-04T04:59:55.582Z,19.12
2019-04-04T05:02:26.958Z,19.58
2019-04-04T05:04:59.424Z,20.97
2019-04-04T05:07:31.314Z,21.68
2019-04-04T05:10:03.268Z,21.29
2019-04-04T05:12:34.810Z,21.54
2019-04-04T05:15:07.342Z,23.01
2019-04-04T05:17:40.029Z,23.23
2019-04-04T05:20:12.287Z,22.23
2019-04-04T05:22:43.711Z,21.71
2019-04-04T05:25:15.848Z,22.47
2019-04-04T05:27:47.762Z,23.50
2019-04-04T05:30:20.461Z,23.20
2019-04-04T05:32:56.268Z,22.74
2019-04-04T05:35:25.792Z,23.31
2019-04-04T05:37:57.440Z,23.40
2019-04-04T05:40:30.683Z,23.70
2019-04-04T05:43:04.189Z,25.36
2019-04-04T05:45:35.452Z,25.11
2019-04-04T05:48:07.108Z,24.93
2019-04-04T05:50:38.453Z,25.75
2019-04-04T05:53:10.212Z,26.39
2019-04-04T05:55:42.486Z,26.52
2019-04-04T05:58:14.346Z,26.43
2019-04-04T06:00:46.934Z,26.65
2019-04-04T06:03:18.605Z,26.68
2019-04-04T06:05:50.358Z,27.38
2019-04-04T06:08:22.112Z,26.63
2019-04-04T06:10:54.043Z,26.98
2019-04-04T06:13:27.014Z,26.51
2019-04-04T06:15:58.747Z,26.50
2019-04-04T06:18:30.239Z,27.92
2019-04-04T06:21:01.836Z,28.63
2019-04-04T06:23:33.653Z,27.50
2019-04-04T06:26:07.416Z,29.15
2019-04-04T06:28:38.813Z,29.81
2019-04-04T06:31:10.607Z,27.94
2019-04-04T06:33:42.360Z,29.53
2019-04-04T06:36:17.612Z,29.33
2019-04-04T06:38:49.772Z,30.41
2019-04-04T06:41:21.383Z,29.41
2019-04-04T06:43:54.323Z,30.57
2019-04-04T06:46:26.048Z,30.45
2019-04-04T06:48:57.957Z,30.49
2019-04-04T06:51:29.553Z,30.48
2019-04-04T06:54:01.441Z,31.02
2019-04-04T06:56:33.019Z,31.53
2019-04-04T06:59:04.927Z,32.33
2019-04-04T07:01:36.602Z,32.26
2019-04-04T07:04:08.236Z,32.82
2019-04-04T07:06:41.761Z,33.28
2019-04-04T07:09:13.591Z,33.80
2019-04-04T07:11:44.973Z,34.21
2019-04-04T07:14:17.493Z,31.83
2019-04-04T07:16:49.460Z,32.26
2019-04-04T07:19:21.136Z,32.76
2019-04-04T07:21:52.795Z,31.80
2019-04-04T07:24:24.303Z,32.51
2019-04-04T07:26:55.863Z,31.46
2019-04-04T07:29:27.782Z,32.71
2019-04-04T07:31:59.542Z,31.63
2019-04-04T07:34:30.979Z,31.82
2019-04-04T07:37:03.130Z,30.33
2019-04-04T07:39:34.812Z,28.89
2019-04-04T07:42:06.602Z,28.94
2019-04-04T07:44:38.512Z,29.88
2019-04-04T07:47:10.453Z,30.33
2019-04-04T07:49:41.814Z,29.40
2019-04-04T07:52:13.934Z,29.28
2019-04-04T07:54:45.529Z,29.30
2019-04-04T07:57:19.712Z,27.37
2019-04-04T07:59:50.339Z,23.18
2019-04-04T08:02:22.261Z,17.81
2019-04-04T08:04:53.900Z,14.82
2019-04-04T08:07:25.425Z,12.48
2019-04-04T08:09:56.927Z,11.55
2019-04-04T08:12:28.787Z,11.14
2019-04-04T08:15:00.539Z,11.14
2019-04-04T08:17:32.300Z,10.91
2019-04-04T08:20:04.674Z,10.31
2019-04-04T08:22:39.460Z,10.81
2019-04-04T08:25:09.357Z,10.40
2019-04-04T08:27:40.934Z,10.21
2019-04-04T08:30:12.819Z,10.68
2019-04-04T08:32:44.237Z,10.17
2019-04-04T08:35:15.509Z,9.71
2019-04-04T08:37:47.277Z,9.95
2019-04-04T08:40:18.599Z,9.48
2019-04-04T08:42:50.163Z,9.61
2019-04-04T08:45:21.825Z,9.97
2019-04-04T08:47:53.678Z,9.76
2019-04-04T08:50:25.358Z,10.06
2019-04-04T08:52:56.856Z,10.48
2019-04-04T08:55:28.225Z,10.80
2019-04-04T08:58:00.182Z,10.89
2019-04-04T09:00:31.603Z,10.89
2019-04-04T09:03:03.344Z,11.05
2019-04-04T09:05:34.763Z,10.71
2019-04-04T09:08:06.414Z,10.78
2019-04-04T09:10:37.774Z,10.66
2019-04-04T09:13:09.912Z,10.71
2019-04-04T09:15:41.463Z,10.48
2019-04-04T09:18:13.341Z,10.68
2019-04-04T09:20:44.677Z,10.77
2019-04-04T09:23:16.530Z,10.57
2019-04-04T09:25:47.991Z,10.75
2019-04-04T09:28:19.750Z,10.91
2019-04-04T09:30:51.615Z,11.00
2019-04-04T09:33:23.175Z,11.12
2019-04-04T09:35:54.919Z,11.15
2019-04-04T09:38:29.055Z,11.28
2019-04-04T09:40:59.679Z,11.05
2019-04-04T09:43:31.278Z,10.94
2019-04-04T09:46:02.748Z,11.11
2019-04-04T09:48:34.427Z,11.25
2019-04-04T09:51:06.203Z,11.30
2019-04-04T09:53:52.386Z,11.45
2019-04-04T09:56:13.270Z,11.59
2019-04-04T09:58:44.797Z,11.48
2019-04-04T10:01:16.386Z,11.39
2019-04-04T10:03:47.835Z,11.28
2019-04-04T10:06:19.636Z,10.94
2019-04-04T10:08:51.041Z,11.22
2019-04-04T10:11:22.699Z,11.22
2019-04-04T10:13:54.153Z,11.37
2019-04-04T10:16:25.876Z,11.37
2019-04-04T10:18:57.455Z,11.32
2019-04-04T10:21:29.159Z,11.35
2019-04-04T10:24:01.522Z,11.13
2019-04-04T10:26:33.061Z,11.03
2019-04-04T10:29:04.646Z,10.72
2019-04-04T10:31:36.488Z,10.57
2019-04-04T10:34:08.183Z,10.73
2019-04-04T10:36:39.964Z,10.86
2019-04-04T10:39:12.986Z,10.95
2019-04-04T10:41:44.619Z,11.21
2019-04-04T10:44:16.157Z,11.34
2019-04-04T10:46:47.836Z,11.41
2019-04-04T10:49:19.301Z,11.31
2019-04-04T10:51:51.126Z,11.14
2019-04-04T10:54:22.791Z,11.22
2019-04-04T10:56:54.278Z,11.49
2019-04-04T10:59:25.995Z,11.43
2019-04-04T11:02:00.735Z,11.39
2019-04-04T11:04:31.158Z,11.21
2019-04-04T11:07:02.907Z,11.29
2019-04-04T11:09:41.733Z,11.33
2019-04-04T11:12:07.508Z,11.29
2019-04-04T11:14:39.002Z,11.24
2019-04-04T11:17:10.665Z,11.08
2019-04-04T11:19:43.519Z,10.94
2019-04-04T11:22:15.262Z,10.96
2019-04-04T11:24:46.788Z,11.07
2019-04-04T11:27:18.644Z,11.07
2019-04-04T11:29:49.862Z,11.07
2019-04-04T11:32:21.899Z,11.14
2019-04-04T11:34:53.922Z,11.18
2019-04-04T11:37:25.423Z,11.07
2019-04-04T11:39:57.711Z,11.12
2019-04-04T11:42:29.076Z,11.10
2019-04-04T11:45:00.859Z,11.09
2019-04-04T11:47:33.483Z,11.12
2019-04-04T11:50:07.618Z,11.07
2019-04-04T11:52:39.032Z,11.20
2019-04-04T11:55:10.683Z,11.27
2019-04-04T11:57:42.257Z,11.40
2019-04-04T12:00:15.365Z,11.25
2019-04-04T12:02:46.915Z,11.42
2019-04-04T12:05:18.800Z,11.44
2019-04-04T12:07:50.355Z,11.45
2019-04-04T12:10:21.758Z,11.25
2019-04-04T12:12:53.318Z,11.08
2019-04-04T12:15:24.983Z,11.15
2019-04-04T12:17:56.750Z,11.11
2019-04-04T12:20:28.068Z,11.17
2019-04-04T12:22:59.707Z,11.33
2019-04-04T12:25:31.234Z,11.37
2019-04-04T12:28:03.168Z,11.43
2019-04-04T12:30:34.696Z,11.45
2019-04-04T12:33:06.487Z,11.57
2019-04-04T12:35:38.326Z,11.48
2019-04-04T12:38:10.130Z,11.62
2019-04-04T12:40:41.945Z,11.60
2019-04-04T12:43:13.791Z,11.43
2019-04-04T12:45:45.454Z,11.44
2019-04-04T12:48:16.892Z,11.57
2019-04-04T12:50:48.625Z,11.50
2019-04-04T12:53:20.614Z,11.42
2019-04-04T12:55:54.158Z,11.40
2019-04-04T12:58:25.187Z,11.49
2019-04-04T13:00:56.609Z,11.54
2019-04-04T13:03:28.706Z,11.56
2019-04-04T13:06:00.440Z,11.66
2019-04-04T13:08:32.129Z,11.56
2019-04-04T13:11:03.543Z,11.47
2019-04-04T13:13:37.993Z,11.47
2019-04-04T13:16:09.335Z,11.41
2019-04-04T13:18:40.893Z,11.48
2019-04-04T13:21:12.383Z,11.53
2019-04-04T13:23:44.376Z,11.43
2019-04-04T13:26:15.886Z,11.42
2019-04-04T13:28:47.503Z,11.47
2019-04-04T13:31:18.734Z,11.67
2019-04-04T13:33:51.222Z,11.79
2019-04-04T13:36:22.546Z,11.84
2019-04-04T13:38:55.166Z,11.83
2019-04-04T13:41:27.496Z,12.05
2019-04-04T13:43:59.046Z,12.23
2019-04-04T13:46:30.719Z,12.21
2019-04-04T13:49:02.362Z,12.20
2019-04-04T13:51:33.736Z,12.17
2019-04-04T13:54:05.616Z,12.21
2019-04-04T13:56:37.049Z,12.11
2019-04-04T13:59:08.592Z,12.16
2019-04-04T14:01:42.789Z,12.14
2019-04-04T14:04:13.309Z,12.12
2019-04-04T14:06:45.105Z,12.10
2019-04-04T14:09:16.889Z,11.95
2019-04-04T14:11:48.383Z,11.79
2019-04-04T14:14:20.034Z,11.76
2019-04-04T14:16:51.704Z,11.67
2019-04-04T14:19:22.891Z,11.55
2019-04-04T14:21:54.496Z,11.41
2019-04-04T14:24:26.144Z,11.30
2019-04-04T14:26:57.553Z,11.30
2019-04-04T14:29:28.980Z,11.22
2019-04-04T14:32:00.800Z,11.26
2019-04-04T14:34:32.479Z,11.32
2019-04-04T14:37:04.440Z,11.27
2019-04-04T14:39:35.839Z,11.32
2019-04-04T14:42:07.453Z,11.32
2019-04-04T14:44:39.292Z,11.25
2019-04-04T14:47:10.946Z,11.21
2019-04-04T14:49:45.079Z,11.24
2019-04-04T14:52:19.528Z,11.21
2019-04-04T14:54:49.356Z,11.14
2019-04-04T14:57:20.946Z,11.08
2019-04-04T14:59:52.601Z,11.01
2019-04-04T15:02:24.166Z,10.91
2019-04-04T15:04:56.061Z,10.85
2019-04-04T15:07:27.463Z,10.83
2019-04-04T15:09:59.124Z,10.74
2019-04-04T15:12:30.787Z,10.67
2019-04-04T15:15:02.612Z,10.57
2019-04-04T15:17:34.081Z,10.46
2019-04-04T15:20:08.876Z,10.39
2019-04-04T15:22:40.597Z,10.30
2019-04-04T15:25:12.233Z,10.24
2019-04-04T15:27:43.839Z,10.15
2019-04-04T15:30:15.465Z,10.09
2019-04-04T15:32:47.290Z,10.00
2019-04-04T15:35:18.840Z,10.00
2019-04-04T15:37:50.261Z,9.94
2019-04-04T15:40:21.743Z,9.83
2019-04-04T15:42:53.087Z,9.74
2019-04-04T15:45:24.785Z,9.67
2019-04-04T15:47:56.096Z,9.52
2019-04-04T15:50:27.949Z,9.39
2019-04-04T15:52:59.159Z,9.34
2019-04-04T15:55:30.758Z,9.23
2019-04-04T15:58:01.993Z,9.23
2019-04-04T16:00:33.765Z,9.14
2019-04-04T16:03:05.260Z,9.04
2019-04-04T16:05:38.808Z,8.92
2019-04-04T16:08:10.476Z,8.80
2019-04-04T16:10:42.015Z,8.72
2019-04-04T16:13:13.468Z,8.60
2019-04-04T16:15:45.234Z,8.44
2019-04-04T16:18:16.736Z,8.36
2019-04-04T16:20:48.235Z,8.24
2019-04-04T16:23:19.518Z,8.09
2019-04-04T16:25:51.176Z,7.94
2019-04-04T16:28:22.625Z,7.75
2019-04-04T16:30:54.072Z,7.72
2019-04-04T16:33:26.564Z,7.64
2019-04-04T16:35:58.245Z,7.76
2019-04-04T16:38:30.017Z,7.81
2019-04-04T16:41:01.474Z,7.78
2019-04-04T16:43:33.334Z,7.78
2019-04-04T16:46:04.874Z,7.69
2019-04-04T16:48:36.439Z,7.60
2019-04-04T16:51:07.643Z,7.43
2019-04-04T16:53:39.225Z,7.41
2019-04-04T16:56:10.886Z,7.44
2019-04-04T16:58:42.572Z,7.30
2019-04-04T17:01:14.158Z,7.30
2019-04-04T17:03:45.879Z,7.36
2019-04-04T17:06:17.107Z,7.48
2019-04-04T17:08:48.895Z,7.43
2019-04-04T17:11:20.247Z,7.35
2019-04-04T17:13:51.965Z,7.48
2019-04-04T17:16:23.856Z,7.33
2019-04-04T17:18:56.632Z,7.14
2019-04-04T17:21:27.956Z,6.96
2019-04-04T17:23:59.730Z,6.92
2019-04-04T17:26:31.126Z,6.88
2019-04-04T17:29:02.864Z,6.85
2019-04-04T17:31:34.480Z,6.70
2019-04-04T17:34:05.768Z,6.61
2019-04-04T17:36:38.029Z,6.55
2019-04-04T17:39:10.000Z,6.50
2019-04-04T17:41:41.788Z,6.40
2019-04-04T17:44:14.686Z,6.33
2019-04-04T17:46:48.311Z,6.29
2019-04-04T17:49:20.228Z,6.24
2019-04-04T17:51:51.915Z,6.16
2019-04-04T17:54:23.597Z,6.14
2019-04-04T17:56:55.267Z,6.22
2019-04-04T17:59:26.877Z,6.19
2019-04-04T18:01:58.541Z,6.16
2019-04-04T18:04:29.881Z,6.13
2019-04-04T18:07:01.504Z,6.09
2019-04-04T18:09:33.172Z,6.15
2019-04-04T18:12:05.030Z,5.96
2019-04-04T18:14:36.708Z,5.51
2019-04-04T18:17:08.570Z,5.65
2019-04-04T18:19:40.144Z,5.70
2019-04-04T18:22:11.778Z,5.64
2019-04-04T18:24:43.438Z,5.54
2019-04-04T18:27:14.958Z,5.56
2019-04-04T18:29:46.805Z,5.52
2019-04-04T18:32:18.394Z,5.48
2019-04-04T18:34:49.725Z,5.61
2019-04-04T18:37:21.928Z,5.61
2019-04-04T18:39:53.359Z,5.63
2019-04-04T18:42:25.376Z,5.75
2019-04-04T18:44:57.263Z,5.86
2019-04-04T18:47:28.920Z,5.77
2019-04-04T18:50:00.726Z,5.71
2019-04-04T18:52:32.579Z,5.53
2019-04-04T18:55:05.470Z,5.44
2019-04-04T18:57:37.164Z,5.34
2019-04-04T19:00:11.825Z,5.43
2019-04-04T19:02:43.561Z,5.51
2019-04-04T19:05:15.323Z,5.64
2019-04-04T19:07:47.130Z,5.69
2019-04-04T19:10:18.560Z,5.79
2019-04-04T19:12:50.017Z,5.66
2019-04-04T19:15:21.689Z,5.60
2019-04-04T19:17:53.428Z,5.51
2019-04-04T19:20:25.198Z,5.63
2019-04-04T19:22:56.805Z,5.60
2019-04-04T19:25:28.269Z,5.56
2019-04-04T19:28:00.041Z,5.54
2019-04-04T19:30:31.645Z,5.43
2019-04-04T19:33:03.181Z,5.32
2019-04-04T19:35:34.946Z,5.25
2019-04-04T19:38:06.920Z,5.18
2019-04-04T19:40:38.801Z,5.04
2019-04-04T19:43:17.926Z,4.83
2019-04-04T19:45:43.869Z,4.77
2019-04-04T19:48:15.542Z,4.72
2019-04-04T19:50:47.017Z,4.65
2019-04-04T19:53:18.549Z,4.65
2019-04-04T19:55:50.056Z,4.58
2019-04-04T19:58:21.600Z,4.41
2019-04-04T20:00:52.994Z,4.26
2019-04-04T20:03:24.639Z,4.09
2019-04-04T20:05:56.420Z,3.89
2019-04-04T20:08:28.563Z,3.66
2019-04-04T20:11:02.316Z,3.45
2019-04-04T20:13:34.524Z,3.28
2019-04-04T20:16:05.943Z,3.11
2019-04-04T20:18:37.512Z,2.99
2019-04-04T20:21:09.404Z,2.93
2019-04-04T20:23:41.089Z,2.96
2019-04-04T20:26:12.694Z,2.97
2019-04-04T20:28:44.681Z,3.14
2019-04-04T20:31:16.353Z,3.21
2019-04-04T20:34:00.660Z,3.26
2019-04-04T20:36:21.587Z,3.32
2019-04-04T20:38:53.248Z,3.31
2019-04-04T20:41:24.939Z,3.24
2019-04-04T20:43:56.554Z,3.25
2019-04-04T20:46:28.642Z,3.18
2019-04-04T20:49:00.070Z,3.16
2019-04-04T20:51:32.132Z,3.24
2019-04-04T20:54:04.092Z,3.24
2019-04-04T20:56:35.917Z,3.24
2019-04-04T20:59:07.569Z,3.23
2019-04-04T21:01:38.839Z,3.32
2019-04-04T21:04:10.620Z,3.33
2019-04-04T21:06:42.177Z,3.34
2019-04-04T21:09:13.658Z,3.22
2019-04-04T21:11:44.990Z,3.09
2019-04-04T21:14:16.887Z,3.03
2019-04-04T21:16:48.278Z,2.97
2019-04-04T21:19:20.032Z,2.99
2019-04-04T21:21:51.601Z,2.90
2019-04-04T21:24:23.651Z,2.81
2019-04-04T21:26:55.037Z,2.86
2019-04-04T21:29:26.682Z,3.01
2019-04-04T21:31:57.980Z,3.02
2019-04-04T21:34:29.683Z,2.90
2019-04-04T21:37:01.016Z,2.73
2019-04-04T21:39:33.309Z,2.73
2019-04-04T21:42:04.353Z,2.69
2019-04-04T21:44:36.487Z,2.55
2019-04-04T21:47:08.137Z,2.41
2019-04-04T21:49:39.754Z,2.51
2019-04-04T21:52:11.454Z,2.49
2019-04-04T21:54:43.513Z,2.45
2019-04-04T21:57:15.175Z,2.51
2019-04-04T21:59:46.628Z,2.49
2019-04-04T22:02:18.287Z,2.40
2019-04-04T22:04:49.721Z,2.29
2019-04-04T22:07:21.396Z,2.24
2019-04-04T22:09:56.079Z,2.19
2019-04-04T22:12:27.692Z,2.07
2019-04-04T22:14:59.422Z,2.01
2019-04-04T22:17:31.286Z,1.93
2019-04-04T22:20:02.883Z,1.78
2019-04-04T22:22:34.824Z,1.70
2019-04-04T22:25:07.232Z,1.70
2019-04-04T22:27:38.829Z,1.68
2019-04-04T22:30:10.078Z,1.66
2019-04-04T22:32:41.854Z,1.59
2019-04-04T22:35:13.294Z,1.45
2019-04-04T22:37:44.944Z,1.30
2019-04-04T22:40:16.383Z,1.23
2019-04-04T22:42:48.142Z,1.29
2019-04-04T22:45:19.609Z,1.41
2019-04-04T22:47:51.360Z,1.47
2019-04-04T22:50:22.711Z,1.43
2019-04-04T22:52:54.825Z,1.43
2019-04-04T22:55:26.814Z,1.46
2019-04-04T22:57:58.387Z,1.39
2019-04-04T23:00:29.708Z,1.35
2019-04-04T23:03:02.493Z,1.33
2019-04-04T23:05:33.859Z,1.31
2019-04-04T23:08:07.473Z,1.32
2019-04-04T23:10:38.714Z,1.24
2019-04-04T23:13:10.262Z,1.22
2019-04-04T23:15:41.811Z,1.17
2019-04-04T23:18:13.501Z,1.10
2019-04-04T23:20:44.834Z,1.09
2019-04-04T23:23:16.679Z,1.08
2019-04-04T23:25:48.227Z,1.09
2019-04-04T23:28:19.986Z,1.13
2019-04-04T23:30:51.642Z,1.08
2019-04-04T23:33:23.099Z,1.08
2019-04-04T23:35:54.782Z,0.96
2019-04-04T23:38:26.507Z,0.83
2019-04-04T23:40:58.051Z,0.73
2019-04-04T23:43:29.614Z,0.65
2019-04-04T23:46:01.002Z,0.55
2019-04-04T23:48:32.502Z,0.49
2019-04-04T23:51:04.494Z,0.46
2019-04-04T23:53:35.989Z,0.43
2019-04-04T23:56:07.892Z,0.42
2019-04-04T23:58:39.137Z,0.45
